createdAt,value
2018-12-21T00:01:19.126Z,86.81
2018-12-21T00:03:47.456Z,86.66
2018-12-21T00:06:15.598Z,87.29
2018-12-21T00:08:43.729Z,87.08
2018-12-21T00:11:11.890Z,87.04
2018-12-21T00:13:40.174Z,87.21
2018-12-21T00:16:08.336Z,86.93
2018-12-21T00:18:36.635Z,86.78
2018-12-21T00:21:04.852Z,87.01
2018-12-21T00:23:33.005Z,86.86
2018-12-21T00:26:01.132Z,87.09
2018-12-21T00:28:29.401Z,86.47
2018-12-21T00:31:03.003Z,86.24
2018-12-21T00:33:36.550Z,86.18
2018-12-21T00:36:10.293Z,86.17
2018-12-21T00:38:43.726Z,86.39
2018-12-21T00:41:13.915Z,86.51
2018-12-21T00:43:47.245Z,87.32
2018-12-21T00:46:21.559Z,87.58
2018-12-21T00:48:50.084Z,87.63
2018-12-21T00:51:18.335Z,87.63
2018-12-21T00:53:46.589Z,87.11
2018-12-21T00:56:14.729Z,87.34
2018-12-21T00:58:42.870Z,87.44
2018-12-21T01:01:11.126Z,87.33
2018-12-21T01:03:39.333Z,87.87
2018-12-21T01:06:07.616Z,88.00
2018-12-21T01:08:35.842Z,88.30
2018-12-21T01:11:04.186Z,88.70
2018-12-21T01:13:32.702Z,89.27
2018-12-21T01:16:00.969Z,89.37
2018-12-21T01:18:29.244Z,89.24
2018-12-21T01:20:58.049Z,89.41
2018-12-21T01:23:26.311Z,89.58
2018-12-21T01:25:54.480Z,90.10
2018-12-21T01:28:22.642Z,90.35
2018-12-21T01:30:50.807Z,90.33
2018-12-21T01:33:18.985Z,90.58
2018-12-21T01:35:47.159Z,91.36
2018-12-21T01:38:15.314Z,91.35
2018-12-21T01:40:43.461Z,91.49
2018-12-21T01:43:11.732Z,91.32
2018-12-21T01:45:39.885Z,91.54
2018-12-21T01:48:08.014Z,92.13
2018-12-21T01:50:36.322Z,92.13
2018-12-21T01:53:04.625Z,91.65
2018-12-21T01:55:32.865Z,91.24
2018-12-21T01:58:00.998Z,90.74
2018-12-21T02:00:29.421Z,90.70
2018-12-21T02:02:57.550Z,90.49
2018-12-21T02:05:25.757Z,90.52
2018-12-21T02:07:53.892Z,90.74
2018-12-21T02:10:22.263Z,90.81
2018-12-21T02:12:50.473Z,90.77
2018-12-21T02:15:18.669Z,90.80
2018-12-21T02:17:46.826Z,90.85
2018-12-21T02:20:15.065Z,90.49
2018-12-21T02:22:43.233Z,90.33
2018-12-21T02:25:11.557Z,90.03
2018-12-21T02:27:39.693Z,90.09
2018-12-21T02:30:08.415Z,89.50
2018-12-21T02:32:36.590Z,89.37
2018-12-21T02:35:05.247Z,89.72
2018-12-21T02:37:33.555Z,89.81
2018-12-21T02:40:01.695Z,89.18
2018-12-21T02:42:29.868Z,89.62
2018-12-21T02:44:58.020Z,89.86
2018-12-21T02:47:27.320Z,90.25
2018-12-21T02:49:55.555Z,90.88
2018-12-21T02:52:23.830Z,91.22
2018-12-21T02:54:51.969Z,91.23
2018-12-21T02:57:20.177Z,90.94
2018-12-21T02:59:48.384Z,91.04
2018-12-21T03:02:16.531Z,90.87
2018-12-21T03:04:44.665Z,90.99
2018-12-21T03:07:12.893Z,90.59
2018-12-21T03:09:41.136Z,90.80
2018-12-21T03:12:09.290Z,90.50
2018-12-21T03:14:37.795Z,90.94
2018-12-21T03:17:05.938Z,90.58
2018-12-21T03:19:34.099Z,90.93
2018-12-21T03:22:02.302Z,90.86
2018-12-21T03:24:30.530Z,91.08
2018-12-21T03:26:58.910Z,91.10
2018-12-21T03:29:27.128Z,91.21
2018-12-21T03:31:55.279Z,91.31
2018-12-21T03:34:23.548Z,91.21
2018-12-21T03:36:51.778Z,91.62
2018-12-21T03:39:20.095Z,91.61
2018-12-21T03:41:48.291Z,91.58
2018-12-21T03:44:16.438Z,91.55
2018-12-21T03:46:44.611Z,91.62
2018-12-21T03:49:12.745Z,91.65
2018-12-21T03:51:40.941Z,91.46
2018-12-21T03:54:09.162Z,91.43
2018-12-21T03:56:37.516Z,91.03
2018-12-21T03:59:05.858Z,90.57
2018-12-21T04:01:34.122Z,90.70
2018-12-21T04:04:02.335Z,90.85
2018-12-21T04:06:30.718Z,90.51
2018-12-21T04:08:58.866Z,90.62
2018-12-21T04:11:27.108Z,90.53
2018-12-21T04:13:55.254Z,90.13
2018-12-21T04:16:23.601Z,90.37
2018-12-21T04:18:51.764Z,90.50
2018-12-21T04:21:19.914Z,90.63
2018-12-21T04:23:48.062Z,90.45
2018-12-21T04:26:16.396Z,90.97
2018-12-21T04:28:44.585Z,91.21
2018-12-21T04:31:12.777Z,90.95
2018-12-21T04:33:40.941Z,91.02
2018-12-21T04:36:09.104Z,91.04
2018-12-21T04:38:37.246Z,90.95
2018-12-21T04:41:05.402Z,90.65
2018-12-21T04:43:33.598Z,90.58
2018-12-21T04:46:02.420Z,90.56
2018-12-21T04:48:30.703Z,89.88
2018-12-21T04:50:58.930Z,89.94
2018-12-21T04:53:27.192Z,89.72
2018-12-21T04:55:55.325Z,89.81
2018-12-21T04:58:23.731Z,89.91
2018-12-21T05:00:51.974Z,90.04
2018-12-21T05:03:20.117Z,89.48
2018-12-21T05:05:48.283Z,89.35
2018-12-21T05:08:16.606Z,89.08
2018-12-21T05:10:44.751Z,88.76
2018-12-21T05:13:12.874Z,88.45
2018-12-21T05:15:41.031Z,88.54
2018-12-21T05:18:09.163Z,88.34
2018-12-21T05:20:37.309Z,87.69
2018-12-21T05:23:05.542Z,88.16
2018-12-21T05:25:34.209Z,88.09
2018-12-21T05:28:02.335Z,87.70
2018-12-21T05:30:30.503Z,87.48
2018-12-21T05:32:58.753Z,87.72
2018-12-21T05:35:26.911Z,86.99
2018-12-21T05:37:55.080Z,86.67
2018-12-21T05:40:23.382Z,86.51
2018-12-21T05:42:51.597Z,86.42
2018-12-21T05:45:19.844Z,86.02
2018-12-21T05:47:47.995Z,86.00
2018-12-21T05:50:16.145Z,85.95
2018-12-21T05:52:44.309Z,86.36
2018-12-21T05:55:12.526Z,86.25
2018-12-21T05:57:40.670Z,86.76
2018-12-21T06:00:10.241Z,86.19
2018-12-21T06:02:38.403Z,86.02
2018-12-21T06:05:07.017Z,86.39
2018-12-21T06:07:36.197Z,86.64
2018-12-21T06:10:04.683Z,86.68
2018-12-21T06:12:32.874Z,86.72
2018-12-21T06:15:00.999Z,87.62
2018-12-21T06:17:29.141Z,88.65
2018-12-21T06:19:57.344Z,88.65
2018-12-21T06:22:25.680Z,89.16
2018-12-21T06:24:53.921Z,89.15
2018-12-21T06:27:22.284Z,88.19
2018-12-21T06:29:50.422Z,85.49
2018-12-21T06:32:18.637Z,83.59
2018-12-21T06:34:46.785Z,84.00
2018-12-21T06:37:14.928Z,85.12
2018-12-21T06:39:43.062Z,85.32
2018-12-21T06:42:11.336Z,84.20
2018-12-21T06:44:39.514Z,85.27
2018-12-21T06:47:07.754Z,85.56
2018-12-21T06:49:35.902Z,85.01
2018-12-21T06:52:04.109Z,84.77
2018-12-21T06:54:32.267Z,86.27
2018-12-21T06:57:00.552Z,85.99
2018-12-21T06:59:28.735Z,85.61
2018-12-21T07:01:57.134Z,85.76
2018-12-21T07:04:25.301Z,88.24
2018-12-21T07:06:53.594Z,89.11
2018-12-21T07:09:21.730Z,90.32
2018-12-21T07:11:49.994Z,90.95
2018-12-21T07:14:18.543Z,92.17
2018-12-21T07:16:46.885Z,92.39
2018-12-21T07:19:15.028Z,91.87
2018-12-21T07:21:43.282Z,91.78
2018-12-21T07:24:11.495Z,91.82
2018-12-21T07:26:39.714Z,91.81
2018-12-21T07:29:08.805Z,90.69
2018-12-21T07:31:37.000Z,90.38
2018-12-21T07:34:05.126Z,90.40
2018-12-21T07:36:33.380Z,89.80
2018-12-21T07:39:01.655Z,89.87
2018-12-21T07:41:29.929Z,89.63
2018-12-21T07:44:01.730Z,90.37
2018-12-21T07:46:30.890Z,91.52
2018-12-21T07:48:59.034Z,91.59
2018-12-21T07:51:27.278Z,91.76
2018-12-21T07:53:55.449Z,91.31
2018-12-21T07:56:23.663Z,92.48
2018-12-21T07:58:57.169Z,92.86
2018-12-21T08:01:21.997Z,92.83
2018-12-21T08:03:50.155Z,93.05
2018-12-21T08:06:18.447Z,92.79
2018-12-21T08:08:46.609Z,92.18
2018-12-21T08:11:14.862Z,92.18
2018-12-21T08:13:43.034Z,92.04
2018-12-21T08:16:11.320Z,92.15
2018-12-21T08:18:40.128Z,91.91
2018-12-21T08:21:08.274Z,92.28
2018-12-21T08:23:44.076Z,92.07
2018-12-21T08:26:06.718Z,92.57
2018-12-21T08:28:34.868Z,92.18
2018-12-21T08:31:03.017Z,92.22
2018-12-21T08:33:31.186Z,92.62
2018-12-21T08:35:59.585Z,93.04
2018-12-21T08:38:27.736Z,92.85
2018-12-21T08:40:56.833Z,92.62
2018-12-21T08:43:24.967Z,93.72
2018-12-21T08:45:53.119Z,93.52
2018-12-21T08:48:21.600Z,94.32
2018-12-21T08:50:49.877Z,94.96
2018-12-21T08:53:18.221Z,94.38
2018-12-21T08:55:46.441Z,95.01
2018-12-21T08:58:14.586Z,94.91
2018-12-21T09:00:42.757Z,94.73
2018-12-21T09:03:11.366Z,95.23
2018-12-21T09:05:39.616Z,95.06
2018-12-21T09:08:07.826Z,95.35
2018-12-21T09:10:36.057Z,95.01
2018-12-21T09:13:04.381Z,94.76
2018-12-21T09:15:32.674Z,94.55
2018-12-21T09:18:00.834Z,93.73
2018-12-21T09:20:29.055Z,92.21
2018-12-21T09:22:57.201Z,91.71
2018-12-21T09:25:25.537Z,91.21
2018-12-21T09:27:53.725Z,91.31
2018-12-21T09:30:21.962Z,91.15
2018-12-21T09:32:50.091Z,90.73
2018-12-21T09:35:18.257Z,89.96
2018-12-21T09:37:46.468Z,90.22
2018-12-21T09:40:14.762Z,90.71
2018-12-21T09:42:42.906Z,91.83
2018-12-21T09:45:11.233Z,91.88
2018-12-21T09:47:39.455Z,92.11
2018-12-21T09:50:09.616Z,92.27
2018-12-21T09:52:37.859Z,93.89
2018-12-21T09:55:07.312Z,93.44
2018-12-21T09:57:35.463Z,92.94
2018-12-21T10:00:03.960Z,93.63
2018-12-21T10:02:35.795Z,93.69
2018-12-21T10:05:02.329Z,93.73
2018-12-21T10:07:30.776Z,94.13
2018-12-21T10:09:59.025Z,94.33
2018-12-21T10:12:27.189Z,94.42
2018-12-21T10:14:55.614Z,93.80
2018-12-21T10:17:23.806Z,93.69
2018-12-21T10:19:51.945Z,93.86
2018-12-21T10:22:20.113Z,94.25
2018-12-21T10:24:48.269Z,94.12
2018-12-21T10:27:16.425Z,95.11
2018-12-21T10:29:44.543Z,94.00
2018-12-21T10:32:12.737Z,93.65
2018-12-21T10:34:40.970Z,92.99
2018-12-21T10:37:09.169Z,92.99
2018-12-21T10:39:37.356Z,92.92
2018-12-21T10:42:05.754Z,93.10
2018-12-21T10:44:34.102Z,92.95
2018-12-21T10:47:02.226Z,93.88
2018-12-21T10:49:32.018Z,94.19
2018-12-21T10:52:00.333Z,94.33
2018-12-21T10:54:28.517Z,94.68
2018-12-21T10:56:56.646Z,94.91
2018-12-21T10:59:24.817Z,95.75
2018-12-21T11:01:52.962Z,95.97
2018-12-21T11:04:21.097Z,96.36
2018-12-21T11:06:49.264Z,96.88
2018-12-21T11:09:17.411Z,96.59
2018-12-21T11:11:45.617Z,95.28
2018-12-21T11:14:13.927Z,95.73
2018-12-21T11:16:42.054Z,96.29
2018-12-21T11:19:10.298Z,95.59
2018-12-21T11:21:38.429Z,95.47
2018-12-21T11:24:06.553Z,95.17
2018-12-21T11:26:34.685Z,94.79
2018-12-21T11:29:02.919Z,93.67
2018-12-21T11:31:31.295Z,93.55
2018-12-21T11:33:59.713Z,93.39
2018-12-21T11:36:27.898Z,93.27
2018-12-21T11:38:56.053Z,93.09
2018-12-21T11:41:24.234Z,92.75
2018-12-21T11:43:52.550Z,91.99
2018-12-21T11:46:20.698Z,91.81
2018-12-21T11:48:49.249Z,91.46
2018-12-21T11:51:17.473Z,90.98
2018-12-21T11:53:46.429Z,91.65
2018-12-21T11:56:14.611Z,90.93
2018-12-21T11:58:42.758Z,90.67
2018-12-21T12:01:11.089Z,90.73
2018-12-21T12:03:39.245Z,90.80
2018-12-21T12:06:07.390Z,90.22
2018-12-21T12:08:35.533Z,90.33
2018-12-21T12:11:03.792Z,89.93
2018-12-21T12:13:32.029Z,89.38
2018-12-21T12:16:00.183Z,88.72
2018-12-21T12:18:28.337Z,88.78
2018-12-21T12:20:56.505Z,88.24
2018-12-21T12:23:24.668Z,88.78
2018-12-21T12:25:52.829Z,88.01
2018-12-21T12:28:20.982Z,87.68
2018-12-21T12:30:50.502Z,88.02
2018-12-21T12:33:18.805Z,88.96
2018-12-21T12:35:47.805Z,88.57
2018-12-21T12:38:15.970Z,88.75
2018-12-21T12:40:44.101Z,88.80
2018-12-21T12:43:14.629Z,88.64
2018-12-21T12:45:42.757Z,88.62
2018-12-21T12:48:10.901Z,89.02
2018-12-21T12:50:39.118Z,89.66
2018-12-21T12:53:07.282Z,89.80
2018-12-21T12:55:35.419Z,89.66
2018-12-21T12:58:03.640Z,89.73
2018-12-21T13:00:32.037Z,89.12
2018-12-21T13:03:00.197Z,89.17
2018-12-21T13:05:28.331Z,89.37
2018-12-21T13:07:56.478Z,89.18
2018-12-21T13:10:24.638Z,88.97
2018-12-21T13:12:52.958Z,89.10
2018-12-21T13:15:21.230Z,89.33
2018-12-21T13:17:49.357Z,89.56
2018-12-21T13:20:17.517Z,89.73
2018-12-21T13:22:45.829Z,89.99
2018-12-21T13:25:13.999Z,89.34
2018-12-21T13:27:42.141Z,89.12
2018-12-21T13:30:12.097Z,88.15
2018-12-21T13:32:40.282Z,88.32
2018-12-21T13:35:08.882Z,88.51
2018-12-21T13:37:37.113Z,88.38
2018-12-21T13:40:08.106Z,88.75
2018-12-21T13:42:36.213Z,89.05
2018-12-21T13:45:05.243Z,88.90
2018-12-21T13:47:33.369Z,88.97
2018-12-21T13:50:01.635Z,88.55
2018-12-21T13:52:29.766Z,88.85
2018-12-21T13:54:57.969Z,89.40
2018-12-21T13:57:26.263Z,89.42
2018-12-21T13:59:54.409Z,89.43
2018-12-21T14:02:22.597Z,90.12
2018-12-21T14:04:51.002Z,90.71
2018-12-21T14:07:19.126Z,91.01
2018-12-21T14:09:47.262Z,89.84
2018-12-21T14:12:15.445Z,89.54
2018-12-21T14:14:43.628Z,89.76
2018-12-21T14:17:11.842Z,89.70
2018-12-21T14:19:40.149Z,90.34
2018-12-21T14:22:08.276Z,89.28
2018-12-21T14:24:36.534Z,88.95
2018-12-21T14:27:04.850Z,90.29
2018-12-21T14:29:33.062Z,91.85
2018-12-21T14:32:01.233Z,92.49
2018-12-21T14:34:29.388Z,93.25
2018-12-21T14:36:57.506Z,92.28
2018-12-21T14:39:25.839Z,92.79
2018-12-21T14:41:54.034Z,92.60
2018-12-21T14:44:22.786Z,91.83
2018-12-21T14:46:50.894Z,92.06
2018-12-21T14:49:19.059Z,91.42
2018-12-21T14:51:47.161Z,91.55
2018-12-21T14:54:15.746Z,91.88
2018-12-21T14:56:43.922Z,91.81
2018-12-21T14:59:12.065Z,91.50
2018-12-21T15:01:40.195Z,91.17
2018-12-21T15:04:08.639Z,91.03
2018-12-21T15:06:36.887Z,91.20
2018-12-21T15:09:07.090Z,91.02
2018-12-21T15:11:35.225Z,92.07
2018-12-21T15:14:03.394Z,92.06
2018-12-21T15:16:31.554Z,92.12
2018-12-21T15:18:59.822Z,92.05
2018-12-21T15:21:27.992Z,91.62
2018-12-21T15:23:56.302Z,91.55
2018-12-21T15:26:24.666Z,91.61
2018-12-21T15:28:52.954Z,91.14
2018-12-21T15:31:21.163Z,90.75
2018-12-21T15:33:49.543Z,88.03
2018-12-21T15:36:18.094Z,86.09
2018-12-21T15:38:46.204Z,85.72
2018-12-21T15:41:14.525Z,84.46
2018-12-21T15:43:42.641Z,83.94
2018-12-21T15:46:10.947Z,83.01
2018-12-21T15:48:39.307Z,83.33
2018-12-21T15:51:07.681Z,82.85
2018-12-21T15:53:35.899Z,82.86
2018-12-21T15:56:04.213Z,81.89
2018-12-21T15:58:32.366Z,81.58
2018-12-21T16:01:00.578Z,82.40
2018-12-21T16:03:28.756Z,81.03
2018-12-21T16:05:56.935Z,80.28
2018-12-21T16:08:25.804Z,80.05
2018-12-21T16:10:53.938Z,79.67
2018-12-21T16:13:22.069Z,80.42
2018-12-21T16:15:50.193Z,79.99
2018-12-21T16:18:18.586Z,80.26
2018-12-21T16:20:46.983Z,80.22
2018-12-21T16:23:15.475Z,78.42
2018-12-21T16:25:43.870Z,77.95
2018-12-21T16:28:12.267Z,78.28
2018-12-21T16:30:40.458Z,78.38
2018-12-21T16:33:08.566Z,78.32
2018-12-21T16:35:36.702Z,78.85
2018-12-21T16:38:04.857Z,78.18
2018-12-21T16:40:33.141Z,77.42
2018-12-21T16:43:01.283Z,76.79
2018-12-21T16:45:29.456Z,76.61
2018-12-21T16:47:57.589Z,77.20
2018-12-21T16:50:25.729Z,77.06
2018-12-21T16:52:53.882Z,77.26
2018-12-21T16:55:22.122Z,77.56
2018-12-21T16:57:50.326Z,76.30
2018-12-21T17:00:18.563Z,76.69
2018-12-21T17:02:46.742Z,76.09
2018-12-21T17:05:15.026Z,76.67
2018-12-21T17:07:43.273Z,76.31
2018-12-21T17:10:18.951Z,75.77
2018-12-21T17:12:47.315Z,75.09
2018-12-21T17:15:15.655Z,75.57
2018-12-21T17:17:43.855Z,75.58
2018-12-21T17:20:12.162Z,75.25
2018-12-21T17:22:40.396Z,75.02
2018-12-21T17:25:11.438Z,75.40
2018-12-21T17:27:39.617Z,75.97
2018-12-21T17:30:10.186Z,74.93
2018-12-21T17:32:38.303Z,74.72
2018-12-21T17:35:07.477Z,74.85
2018-12-21T17:37:35.966Z,74.63
2018-12-21T17:40:05.386Z,74.74
2018-12-21T17:42:33.586Z,74.80
2018-12-21T17:45:01.893Z,74.83
2018-12-21T17:47:30.035Z,74.50
2018-12-21T17:49:58.205Z,74.87
2018-12-21T17:52:26.533Z,75.54
2018-12-21T17:54:54.665Z,74.83
2018-12-21T17:57:22.823Z,74.69
2018-12-21T17:59:51.035Z,74.97
2018-12-21T18:02:19.252Z,74.69
2018-12-21T18:04:47.487Z,75.56
2018-12-21T18:07:15.658Z,75.70
2018-12-21T18:09:43.837Z,74.59
2018-12-21T18:12:11.977Z,75.31
2018-12-21T18:14:40.106Z,75.37
2018-12-21T18:17:08.260Z,74.54
2018-12-21T18:19:36.634Z,74.93
2018-12-21T18:22:22.824Z,75.52
2018-12-21T18:24:57.464Z,75.80
2018-12-21T18:27:26.018Z,75.42
2018-12-21T18:29:54.161Z,75.69
2018-12-21T18:32:30.297Z,76.43
2018-12-21T18:35:02.609Z,75.76
2018-12-21T18:37:30.742Z,76.27
2018-12-21T18:39:58.870Z,75.68
2018-12-21T18:42:27.023Z,76.38
2018-12-21T18:44:55.150Z,77.41
2018-12-21T18:47:23.291Z,77.87
2018-12-21T18:49:51.570Z,76.77
2018-12-21T18:52:19.719Z,77.05
2018-12-21T18:54:48.043Z,77.83
2018-12-21T18:57:18.273Z,77.61
2018-12-21T18:59:46.394Z,77.95
2018-12-21T19:02:14.552Z,78.04
2018-12-21T19:04:42.674Z,78.07
2018-12-21T19:07:10.816Z,78.15
2018-12-21T19:09:38.992Z,78.01
2018-12-21T19:12:07.187Z,77.92
2018-12-21T19:14:35.306Z,77.93
2018-12-21T19:17:03.985Z,77.36
2018-12-21T19:19:32.097Z,78.17
2018-12-21T19:22:01.224Z,77.72
2018-12-21T19:24:29.448Z,78.24
2018-12-21T19:26:57.585Z,78.56
2018-12-21T19:29:25.734Z,78.82
2018-12-21T19:31:53.947Z,79.03
2018-12-21T19:34:22.098Z,79.09
2018-12-21T19:36:50.406Z,79.11
2018-12-21T19:39:18.578Z,79.30
2018-12-21T19:41:46.819Z,79.57
2018-12-21T19:44:14.959Z,79.15
2018-12-21T19:46:43.137Z,78.38
2018-12-21T19:49:11.250Z,78.47
2018-12-21T19:51:39.395Z,78.45
2018-12-21T19:54:08.379Z,78.59
2018-12-21T19:56:52.788Z,78.84
2018-12-21T19:59:20.935Z,78.50
2018-12-21T20:01:49.063Z,78.44
2018-12-21T20:04:17.273Z,78.71
2018-12-21T20:06:45.615Z,78.50
2018-12-21T20:09:13.907Z,78.74
2018-12-21T20:11:42.038Z,79.36
2018-12-21T20:14:10.199Z,78.53
2018-12-21T20:16:38.371Z,78.63
2018-12-21T20:19:07.261Z,79.51
2018-12-21T20:21:35.558Z,79.39
2018-12-21T20:24:04.009Z,79.05
2018-12-21T20:26:32.168Z,78.53
2018-12-21T20:29:00.346Z,79.52
2018-12-21T20:31:28.592Z,78.29
2018-12-21T20:33:56.839Z,78.08
2018-12-21T20:36:25.254Z,77.38
2018-12-21T20:38:53.407Z,77.52
2018-12-21T20:41:21.566Z,78.09
2018-12-21T20:43:49.741Z,78.16
2018-12-21T20:46:17.918Z,78.19
2018-12-21T20:48:46.077Z,77.68
2018-12-21T20:51:14.194Z,78.20
2018-12-21T20:53:42.454Z,78.46
2018-12-21T20:56:10.690Z,78.30
2018-12-21T20:58:43.658Z,77.89
2018-12-21T21:01:11.777Z,77.52
2018-12-21T21:03:40.031Z,77.95
2018-12-21T21:06:08.533Z,77.82
2018-12-21T21:08:37.011Z,77.68
2018-12-21T21:11:05.244Z,77.62
2018-12-21T21:13:33.369Z,79.29
2018-12-21T21:16:01.505Z,80.69
2018-12-21T21:18:29.629Z,80.67
2018-12-21T21:20:57.770Z,80.76
2018-12-21T21:23:25.987Z,80.24
2018-12-21T21:25:54.312Z,82.01
2018-12-21T21:28:22.673Z,82.63
2018-12-21T21:30:50.814Z,82.85
2018-12-21T21:33:19.031Z,83.09
2018-12-21T21:35:47.169Z,83.12
2018-12-21T21:38:15.320Z,83.59
2018-12-21T21:40:43.467Z,84.33
2018-12-21T21:43:13.969Z,84.68
2018-12-21T21:45:42.094Z,87.25
2018-12-21T21:48:10.270Z,89.01
2018-12-21T21:50:38.383Z,89.94
2018-12-21T21:53:06.780Z,90.53
2018-12-21T21:55:35.006Z,91.65
2018-12-21T21:58:03.126Z,92.80
2018-12-21T22:02:40.450Z,95.46
2018-12-21T22:05:08.769Z,97.59
2018-12-21T22:07:37.003Z,97.75
2018-12-21T22:10:07.536Z,98.33
2018-12-21T22:12:35.649Z,98.92
2018-12-21T22:15:04.030Z,98.91
2018-12-21T22:17:32.280Z,99.49
2018-12-21T22:20:00.514Z,98.80
2018-12-21T22:22:28.654Z,98.97
2018-12-21T22:24:56.822Z,98.03
2018-12-21T22:27:25.010Z,96.54
2018-12-21T22:29:53.156Z,96.12
2018-12-21T22:32:21.278Z,95.38
2018-12-21T22:34:49.478Z,93.88
2018-12-21T22:37:17.674Z,92.71
2018-12-21T22:39:45.849Z,91.79
2018-12-21T22:42:14.157Z,90.84
2018-12-21T22:44:42.307Z,91.11
2018-12-21T22:47:11.139Z,90.69
2018-12-21T22:49:39.377Z,90.45
2018-12-21T22:52:07.540Z,90.42
2018-12-21T22:54:35.693Z,90.05
2018-12-21T22:57:03.810Z,90.78
2018-12-21T22:59:31.959Z,89.31
2018-12-21T23:02:00.344Z,90.05
2018-12-21T23:04:28.539Z,90.40
2018-12-21T23:06:56.658Z,90.61
2018-12-21T23:09:24.914Z,90.66
2018-12-21T23:11:53.055Z,91.12
2018-12-21T23:14:21.195Z,92.40
2018-12-21T23:16:49.349Z,94.04
2018-12-21T23:19:17.486Z,95.25
2018-12-21T23:21:45.752Z,95.15
2018-12-21T23:24:13.909Z,95.37
2018-12-21T23:26:42.223Z,95.65
2018-12-21T23:29:10.414Z,95.62
2018-12-21T23:31:38.641Z,95.81
2018-12-21T23:34:06.882Z,95.87
2018-12-21T23:36:34.998Z,95.94
2018-12-21T23:39:04.191Z,95.72
2018-12-21T23:41:32.321Z,95.42
2018-12-21T23:44:00.492Z,95.13
2018-12-21T23:46:28.632Z,94.82
2018-12-21T23:48:56.915Z,94.97
2018-12-21T23:51:25.159Z,95.11
2018-12-21T23:53:53.288Z,96.37
2018-12-21T23:56:21.509Z,97.39
2018-12-21T23:58:49.793Z,96.98
